Time;durP1;ratioP1;P1;durP2;ratioP2;P2;SDS_P1;SDS_P2;PMS_P1;PMS_P2;Temp;Humidity;BMP_temperature;BMP_pressure;BME280_temperature;BME280_humidity;BME280_pressure;Samples;Min_cycle;Max_cycle;Signal;HPM_P1;HPM_P2
2022/04/18 00:01:31;;;;;;;8.25;5.38;;;;;;;5.30;58.23;96608.97;5046832;28;20072;-74
2022/04/18 00:04:00;;;;;;;11.32;6.75;;;;;;;5.29;58.52;96607.38;5047861;28;20774;-75
2022/04/18 00:06:26;;;;;;;8.45;5.80;;;;;;;5.28;58.16;96603.06;5045708;28;20109;-76
2022/04/18 00:08:53;;;;;;;10.88;6.60;;;;;;;5.26;58.46;96605.22;5047903;28;20057;-74
2022/04/18 00:11:20;;;;;;;9.43;5.57;;;;;;;5.23;58.33;96598.50;5046877;28;20049;-74
2022/04/18 00:13:46;;;;;;;12.60;7.32;;;;;;;5.24;59.11;96593.88;5045759;28;20450;-74
2022/04/18 00:16:13;;;;;;;12.32;6.93;;;;;;;5.23;59.43;96594.97;5047133;28;20060;-74
2022/04/18 00:18:39;;;;;;;10.88;6.40;;;;;;;5.19;59.19;96599.31;5046996;28;20048;-74
2022/04/18 00:21:07;;;;;;;10.70;6.68;;;;;;;5.22;59.41;96591.47;5047057;28;20037;-74
2022/04/18 00:23:34;;;;;;;8.45;5.80;;;;;;;5.23;60.06;96586.88;5046784;28;20056;-74
2022/04/18 00:26:00;;;;;;;10.80;6.63;;;;;;;5.23;60.55;96584.19;5047410;28;20585;-75
2022/04/18 00:28:26;;;;;;;9.90;6.28;;;;;;;5.21;59.76;96581.75;5046587;28;20052;-75
2022/04/18 00:30:53;;;;;;;10.40;6.00;;;;;;;5.19;59.21;96588.53;5047653;28;20068;-75
2022/04/18 00:33:20;;;;;;;9.70;6.10;;;;;;;5.16;59.30;96584.47;5046871;28;20144;-74
2022/04/18 00:35:46;;;;;;;13.80;6.72;;;;;;;5.16;59.39;96580.97;5046790;28;20057;-75
2022/04/18 00:38:14;;;;;;;12.75;6.82;;;;;;;5.16;59.47;96567.47;5046709;28;20049;-75
2022/04/18 00:40:41;;;;;;;11.98;6.88;;;;;;;5.15;59.93;96576.66;5046025;28;20407;-75
2022/04/18 00:43:08;;;;;;;11.38;6.63;;;;;;;5.05;59.07;96577.50;5046720;28;20053;-74
2022/04/18 00:45:34;;;;;;;12.25;6.43;;;;;;;5.02;59.12;96572.69;5029285;28;20053;-73
2022/04/18 00:48:01;;;;;;;9.60;6.43;;;;;;;4.97;59.04;96568.09;5027412;28;20061;-74
2022/04/18 00:50:29;;;;;;;10.55;6.53;;;;;;;4.93;58.96;96567.03;5026144;28;20068;-73
2022/04/18 00:52:56;;;;;;;12.00;7.25;;;;;;;4.92;58.94;96562.72;5026824;28;20049;-74
2022/04/18 00:55:27;;;;;;;9.60;6.45;;;;;;;4.91;59.01;96566.50;5025931;28;20052;-74
2022/04/18 00:57:55;;;;;;;12.02;6.90;;;;;;;4.88;59.24;96561.66;5026348;28;20500;-74
2022/04/18 01:00:22;;;;;;;13.65;6.95;;;;;;;4.86;59.20;96558.44;5025806;28;20057;-74
2022/04/18 01:02:49;;;;;;;10.23;6.32;;;;;;;4.86;59.18;96558.44;5026194;28;20049;-74
2022/04/18 01:05:15;;;;;;;10.15;6.60;;;;;;;4.84;59.30;96554.38;5025966;28;20049;-73
2022/04/18 01:07:42;;;;;;;13.23;6.70;;;;;;;4.82;59.26;96551.97;5025570;28;20532;-74
2022/04/18 01:10:09;;;;;;;11.10;7.00;;;;;;;4.84;59.71;96549.78;5025747;28;20435;-74
2022/04/18 01:12:38;;;;;;;10.13;6.30;;;;;;;4.87;59.74;96553.84;5025851;28;20074;-73
2022/04/18 01:15:05;;;;;;;14.40;7.70;;;;;;;4.87;59.87;96548.47;5037171;28;20525;-74
2022/04/18 01:17:31;;;;;;;9.75;6.10;;;;;;;4.85;59.52;96551.41;5045074;28;20045;-74
2022/04/18 01:19:58;;;;;;;12.55;7.28;;;;;;;4.81;59.38;96547.66;5045423;28;20049;-74
2022/04/18 01:22:27;;;;;;;9.18;5.80;;;;;;;4.81;59.43;96539.56;5045259;28;20048;-73
2022/04/18 01:30:26;;;;;;;12.90;7.15;;;;;;;4.80;60.70;96537.94;5044553;28;20056;-73
2022/04/18 01:32:53;;;;;;;12.45;7.40;;;;;;;4.81;61.10;96530.69;5045457;28;20563;-73
2022/04/18 01:35:19;;;;;;;13.05;7.65;;;;;;;4.79;62.12;96525.53;5044478;28;20060;-72
2022/04/18 01:37:47;;;;;;;13.35;7.20;;;;;;;4.84;61.34;96532.81;5045447;28;20045;-74
2022/04/18 01:40:14;;;;;;;11.48;7.15;;;;;;;4.85;60.21;96518.22;5044914;28;20041;-73
2022/04/18 01:42:40;;;;;;;11.63;6.45;;;;;;;4.86;60.09;96526.06;5045195;28;20057;-74
2022/04/18 01:45:08;;;;;;;10.18;6.18;;;;;;;4.85;60.93;96529.03;5032439;28;20081;-73
2022/04/18 01:47:35;;;;;;;10.65;6.65;;;;;;;4.83;60.62;96526.59;5025427;28;20490;-73
2022/04/18 01:50:01;;;;;;;9.88;6.70;;;;;;;4.82;60.03;96529.59;5025897;28;20483;-73
2022/04/18 01:52:27;;;;;;;12.23;7.13;;;;;;;4.78;59.76;96526.63;5036943;28;20056;-73
2022/04/18 01:54:55;;;;;;;13.73;7.75;;;;;;;4.77;59.76;96521.50;5045767;28;20491;-74
2022/04/18 01:57:22;;;;;;;10.98;6.78;;;;;;;4.75;59.80;96520.97;5044414;28;20075;-73
2022/04/18 01:59:48;;;;;;;12.93;7.80;;;;;;;4.73;60.18;96515.84;5045164;28;20778;-74
2022/04/18 02:02:15;;;;;;;11.00;6.93;;;;;;;4.72;60.28;96515.06;5045177;28;20399;-75
2022/04/18 02:04:41;;;;;;;15.13;7.80;;;;;;;4.71;60.11;96513.44;5044935;28;20131;-73
2022/04/18 02:07:10;;;;;;;14.73;7.43;;;;;;;4.70;60.14;96511.03;5044625;28;20045;-74
2022/04/18 02:09:37;;;;;;;12.15;7.10;;;;;;;4.68;59.84;96510.47;5044210;28;20067;-74
2022/04/18 02:12:07;;;;;;;15.73;7.75;;;;;;;4.63;59.70;96513.19;5045071;28;20141;-74
2022/04/18 02:14:33;;;;;;;13.50;7.25;;;;;;;4.59;60.10;96504.03;5040248;28;20052;-74
2022/04/18 02:17:00;;;;;;;10.80;6.78;;;;;;;4.56;60.03;96499.22;5045676;28;20052;-74
2022/04/18 02:19:26;;;;;;;10.75;7.00;;;;;;;4.50;60.12;96495.72;5044084;28;20052;-74
2022/04/18 02:21:53;;;;;;;14.68;7.57;;;;;;;4.48;60.08;96503.28;5045018;28;20514;-77
2022/04/18 02:24:19;;;;;;;11.15;6.38;;;;;;;4.48;60.17;96497.88;5044662;28;20048;-73
2022/04/18 02:26:45;;;;;;;10.60;6.97;;;;;;;4.47;59.95;96490.06;5044857;28;20056;-74
2022/04/18 02:29:13;;;;;;;11.98;7.22;;;;;;;4.46;59.81;96491.97;5044080;28;20057;-74
2022/04/18 02:34:20;;;;;;;12.88;7.55;;;;;;;4.51;59.68;96489.25;5044558;28;20060;-74
2022/04/18 02:36:46;;;;;;;11.93;6.93;;;;;;;4.51;59.35;96491.16;5044526;28;20056;-74
2022/04/18 02:39:13;;;;;;;10.23;6.90;;;;;;;4.52;59.20;96477.38;5045031;28;20048;-73
2022/04/18 02:41:40;;;;;;;11.05;5.97;;;;;;;4.53;59.67;96480.88;5044435;28;20055;-73
2022/04/18 02:44:06;;;;;;;13.10;6.72;;;;;;;4.51;59.36;96481.16;5040910;28;20089;-73
2022/04/18 02:46:34;;;;;;;8.18;5.45;;;;;;;4.53;59.43;96478.19;5045144;28;20041;-74
2022/04/18 02:49:00;;;;;;;11.70;6.85;;;;;;;4.53;59.13;96462.00;5044833;28;20052;-74
2022/04/18 02:51:28;;;;;;;12.18;6.70;;;;;;;4.51;59.08;96469.56;5044510;28;20044;-75
2022/04/18 02:53:55;;;;;;;11.35;6.82;;;;;;;4.52;59.21;96465.78;5044237;28;20467;-74
2022/04/18 02:56:21;;;;;;;9.70;6.00;;;;;;;4.53;59.27;96467.41;5045170;28;20106;-73
2022/04/18 02:58:48;;;;;;;10.50;5.93;;;;;;;4.54;59.49;96458.22;5044711;28;20052;-73
2022/04/18 03:01:14;;;;;;;12.43;6.18;;;;;;;4.54;60.20;96463.59;5044428;28;20041;-74
2022/04/18 03:03:42;;;;;;;13.10;6.07;;;;;;;4.56;60.66;96464.16;5044392;28;20056;-74
2022/04/18 03:06:10;;;;;;;10.68;6.80;;;;;;;4.56;60.52;96456.06;5044315;28;20506;-74
2022/04/18 03:08:36;;;;;;;11.88;6.20;;;;;;;4.56;59.66;96462.25;5044698;28;20049;-73
2022/04/18 03:11:07;;;;;;;11.60;7.05;;;;;;;4.56;58.84;96456.06;5044380;28;20049;-73
2022/04/18 03:13:34;;;;;;;10.55;6.22;;;;;;;4.56;58.74;96451.47;5044440;28;20051;-74
2022/04/18 03:16:01;;;;;;;11.05;6.47;;;;;;;4.58;59.00;96448.50;5043202;28;20407;-74
2022/04/18 03:18:27;;;;;;;8.30;5.40;;;;;;;4.56;59.11;96446.09;5044910;28;20045;-73
2022/04/18 03:20:55;;;;;;;10.18;6.47;;;;;;;4.57;59.42;96445.00;5043870;28;20056;-74
2022/04/18 03:23:22;;;;;;;10.80;6.45;;;;;;;4.55;58.20;96449.06;5044886;28;20056;-73
2022/04/18 03:25:48;;;;;;;13.05;7.35;;;;;;;4.50;57.59;96452.59;5044090;28;20096;-73
2022/04/18 03:28:15;;;;;;;11.77;6.78;;;;;;;4.46;57.89;96451.53;5044448;28;20060;-73
2022/04/18 03:30:44;;;;;;;10.40;6.05;;;;;;;4.43;58.59;96441.28;5044259;28;20049;-73
2022/04/18 03:33:10;;;;;;;11.90;7.43;;;;;;;4.31;58.51;96444.28;5043949;28;20060;-74
2022/04/18 03:35:37;;;;;;;10.32;6.50;;;;;;;4.24;58.95;96443.00;5044596;28;20705;-75
2022/04/18 03:40:48;;;;;;;13.13;6.72;;;;;;;4.17;59.62;96448.66;5045523;28;20072;-73
2022/04/18 03:43:15;;;;;;;10.27;6.28;;;;;;;4.14;59.60;96443.81;5039837;28;20050;-74
2022/04/18 03:45:41;;;;;;;13.85;6.47;;;;;;;4.10;59.15;96442.75;5028616;28;20052;-74
2022/04/18 03:48:08;;;;;;;13.50;6.68;;;;;;;4.09;59.64;96430.38;5027108;28;20073;-73
2022/04/18 03:50:34;;;;;;;12.20;7.00;;;;;;;4.05;59.99;96434.69;5028260;28;20053;-73
2022/04/18 03:53:01;;;;;;;12.95;7.05;;;;;;;4.00;61.14;96432.00;5027735;28;20045;-74
2022/04/18 03:55:29;;;;;;;11.45;6.82;;;;;;;3.99;61.03;96428.50;5027617;28;20056;-74
2022/04/18 03:57:56;;;;;;;11.90;6.28;;;;;;;3.92;60.72;96418.03;5027941;28;20049;-73
2022/04/18 04:00:22;;;;;;;11.93;6.95;;;;;;;3.88;60.64;96419.66;5026598;28;20060;-73
2022/04/18 04:02:49;;;;;;;11.20;6.90;;;;;;;3.84;60.66;96426.66;5027956;28;20057;-74
2022/04/18 04:05:15;;;;;;;13.52;7.55;;;;;;;3.82;60.67;96420.75;5026821;28;20520;-73
2022/04/18 04:07:42;;;;;;;11.25;6.82;;;;;;;3.83;61.64;96416.97;5027892;28;20045;-73
2022/04/18 04:10:09;;;;;;;13.48;6.82;;;;;;;3.79;61.57;96421.28;5034830;28;20053;-74
2022/04/18 04:12:37;;;;;;;12.88;7.03;;;;;;;3.79;61.53;96420.47;5028142;28;20049;-74
2022/04/18 04:15:04;;;;;;;14.10;7.28;;;;;;;3.80;61.86;96417.50;5026567;28;20154;-73
2022/04/18 04:17:31;;;;;;;13.13;7.50;;;;;;;3.80;61.86;96412.09;5027869;28;20041;-74
2022/04/18 04:19:57;;;;;;;12.23;6.95;;;;;;;3.83;62.14;96419.66;5027734;28;20071;-73
2022/04/18 04:22:23;;;;;;;12.13;6.70;;;;;;;3.84;62.82;96421.25;5029799;28;20065;-74
2022/04/18 04:24:50;;;;;;;12.82;7.25;;;;;;;3.86;61.95;96421.81;5047353;28;20052;-74
2022/04/18 04:27:16;;;;;;;14.10;7.28;;;;;;;3.85;61.61;96422.88;5045730;28;20056;-73
2022/04/18 04:29:44;;;;;;;13.43;7.45;;;;;;;3.84;61.28;96418.56;5047518;28;20060;-73
2022/04/18 04:32:10;;;;;;;15.32;7.15;;;;;;;3.76;61.30;96421.84;5045787;28;20052;-75
2022/04/18 04:34:37;;;;;;;10.65;6.60;;;;;;;3.75;61.38;96414.81;5047385;28;20053;-74
2022/04/18 04:37:05;;;;;;;13.18;7.43;;;;;;;3.73;61.49;96417.00;5045750;28;20064;-73
2022/04/18 04:39:31;;;;;;;13.60;7.35;;;;;;;3.66;61.54;96416.47;5046897;28;20787;-73
2022/04/18 04:41:58;;;;;;;12.40;7.32;;;;;;;3.66;62.04;96421.84;5046337;28;20049;-74
2022/04/18 04:44:24;;;;;;;13.48;7.13;;;;;;;3.65;61.98;96420.22;5037358;28;20055;-74
2022/04/18 04:46:52;;;;;;;13.43;7.60;;;;;;;3.65;61.85;96422.91;5046456;28;20051;-73
2022/04/18 04:49:19;;;;;;;13.00;7.30;;;;;;;3.66;62.20;96422.66;5045652;28;20707;-73
2022/04/18 04:51:45;;;;;;;13.18;7.45;;;;;;;3.68;61.77;96422.38;5046744;28;20052;-73
2022/04/18 04:54:11;;;;;;;12.65;7.28;;;;;;;3.70;61.69;96420.22;5044816;28;20049;-73
2022/04/18 04:56:38;;;;;;;12.43;7.43;;;;;;;3.71;61.58;96421.00;5046781;28;20542;-73
2022/04/18 04:59:04;;;;;;;12.45;8.20;;;;;;;3.71;61.41;96424.53;5045439;28;20060;-73
2022/04/18 05:01:31;;;;;;;16.08;9.00;;;;;;;3.73;61.95;96417.00;5046313;28;20063;-73
2022/04/18 05:03:58;;;;;;;15.20;8.88;;;;;;;3.72;61.66;96426.16;5046065;28;20068;-73
2022/04/18 05:06:25;;;;;;;14.10;8.18;;;;;;;3.74;61.87;96428.56;5046101;28;20049;-73
2022/04/18 05:08:51;;;;;;;15.10;7.53;;;;;;;3.77;62.21;96423.44;5046909;28;20057;-73
2022/04/18 05:11:18;;;;;;;17.30;9.00;;;;;;;3.80;62.44;96425.56;5045628;28;20110;-73
2022/04/18 05:13:44;;;;;;;17.05;8.95;;;;;;;3.83;61.87;96418.84;5046758;28;20053;-72
2022/04/18 05:16:11;;;;;;;16.63;8.85;;;;;;;3.85;61.73;96420.19;5045463;28;20045;-73
2022/04/18 05:18:38;;;;;;;13.32;8.10;;;;;;;3.87;61.76;96423.44;5046649;28;20052;-74
2022/04/18 05:21:06;;;;;;;12.75;7.90;;;;;;;3.79;61.79;96432.06;5045016;28;20429;-72
2022/04/18 05:23:32;;;;;;;23.80;12.90;;;;;;;3.81;61.96;96429.06;5046422;28;20079;-74
2022/04/18 05:25:59;;;;;;;17.77;9.98;;;;;;;3.83;62.13;96427.75;5045605;28;20049;-73
2022/04/18 05:28:25;;;;;;;15.52;8.05;;;;;;;3.88;62.15;96427.72;5045513;28;20060;-73
2022/04/18 05:30:51;;;;;;;11.77;7.32;;;;;;;3.89;62.07;96428.53;5045654;28;20738;-73
2022/04/18 05:33:21;;;;;;;14.40;7.93;;;;;;;3.95;62.19;96434.72;5045671;28;20045;-74
2022/04/18 05:35:47;;;;;;;11.63;7.75;;;;;;;4.00;62.34;96437.41;5045968;28;20049;-73
2022/04/18 05:38:15;;;;;;;15.07;8.07;;;;;;;4.03;62.29;96439.56;5044706;28;20057;-73
2022/04/18 05:40:42;;;;;;;14.40;7.82;;;;;;;4.04;62.56;96444.66;5045804;28;20099;-73
2022/04/18 05:43:09;;;;;;;13.40;8.23;;;;;;;4.07;62.85;96440.59;5043303;28;20053;-76
2022/04/18 05:45:37;;;;;;;10.85;7.05;;;;;;;4.13;63.01;96447.59;5039012;28;20049;-73
2022/04/18 05:48:03;;;;;;;13.00;6.90;;;;;;;4.17;62.51;96440.56;5044418;28;20053;-74
2022/04/18 05:50:30;;;;;;;13.15;6.70;;;;;;;4.28;62.70;96444.88;5045729;28;20052;-74
2022/04/18 05:52:56;;;;;;;13.02;7.10;;;;;;;4.41;62.63;96440.75;5045251;28;20057;-73
2022/04/18 05:55:24;;;;;;;13.73;7.43;;;;;;;4.54;63.57;96439.34;5045205;28;20052;-74
2022/04/18 05:57:52;;;;;;;11.35;7.25;;;;;;;4.62;61.77;96442.28;5045476;28;20044;-74
2022/04/18 06:00:19;;;;;;;11.38;7.47;;;;;;;4.71;60.31;96442.50;5044577;28;20061;-73
2022/04/18 06:02:46;;;;;;;10.75;6.35;;;;;;;4.75;59.22;96442.75;5046332;28;20091;-73
2022/04/18 06:05:13;;;;;;;14.52;7.65;;;;;;;4.83;59.07;96444.88;5043850;28;20052;-73
2022/04/18 06:07:42;;;;;;;11.45;6.88;;;;;;;4.94;58.90;96441.00;5039162;28;20232;-74
2022/04/18 06:10:10;;;;;;;12.80;7.07;;;;;;;5.04;58.69;96440.16;5024849;28;20049;-73
2022/04/18 06:12:37;;;;;;;10.57;6.40;;;;;;;5.17;59.16;96439.53;5025867;28;20049;-74
2022/04/18 06:15:04;;;;;;;11.32;6.63;;;;;;;5.20;57.81;96438.94;5034588;28;20071;-74
2022/04/18 06:17:31;;;;;;;9.52;6.18;;;;;;;5.28;57.53;96445.66;5045491;28;20059;-73
2022/04/18 06:19:57;;;;;;;11.18;6.65;;;;;;;5.39;57.51;96437.19;5045131;28;20045;-73
2022/04/18 06:22:24;;;;;;;11.27;6.40;;;;;;;5.49;57.66;96447.91;5044673;28;20045;-73
2022/04/18 06:24:50;;;;;;;10.63;6.20;;;;;;;5.57;57.48;96437.56;5045723;28;20060;-74
2022/04/18 06:27:17;;;;;;;9.63;6.38;;;;;;;5.61;56.46;96441.31;5044486;28;20052;-74
2022/04/18 06:29:45;;;;;;;10.85;6.43;;;;;;;5.68;56.81;96436.38;5045911;28;20060;-73
2022/04/18 06:32:11;;;;;;;9.68;5.88;;;;;;;5.74;56.17;96437.94;5044593;28;20160;-74
2022/04/18 06:34:37;;;;;;;9.18;5.93;;;;;;;5.73;56.29;96436.34;5045624;28;20442;-74
2022/04/18 06:37:04;;;;;;;9.80;6.07;;;;;;;5.78;55.98;96439.00;5044261;28;20056;-73
2022/04/18 06:39:31;;;;;;;9.63;5.82;;;;;;;5.84;56.48;96435.13;5044977;28;20052;-73
2022/04/18 06:41:58;;;;;;;9.13;5.85;;;;;;;5.95;56.44;96433.16;5045133;28;20041;-73
2022/04/18 06:44:25;;;;;;;10.57;6.32;;;;;;;6.11;56.51;96433.81;5044516;28;20057;-74
2022/04/18 06:46:53;;;;;;;9.05;5.70;;;;;;;6.26;55.56;96428.25;5045406;28;20080;-73
2022/04/18 06:49:19;;;;;;;8.13;5.53;;;;;;;6.40;54.89;96429.16;5044407;28;20053;-73
2022/04/18 06:51:45;;;;;;;9.73;5.57;;;;;;;6.56;53.93;96426.25;5045866;28;20060;-73
2022/04/18 06:54:12;;;;;;;10.13;5.47;;;;;;;6.69;53.86;96425.56;5044444;28;20045;-73
2022/04/18 06:59:22;;;;;;;9.38;5.35;;;;;;;6.90;51.07;96432.31;5044749;28;20516;-74
2022/04/18 07:01:49;;;;;;;8.65;5.00;;;;;;;6.94;50.37;96429.81;5044727;28;20613;-73
2022/04/18 07:04:17;;;;;;;9.95;4.88;;;;;;;7.06;51.17;96430.97;5044395;28;20045;-74
2022/04/18 07:06:43;;;;;;;6.65;4.65;;;;;;;7.20;50.42;96430.22;5027730;28;20057;-73
2022/04/18 07:09:10;;;;;;;9.10;4.75;;;;;;;7.33;50.30;96438.44;5024605;28;20073;-73
2022/04/18 07:11:36;;;;;;;7.38;4.60;;;;;;;7.55;49.25;96434.28;5024663;28;20128;-73
2022/04/18 07:14:03;;;;;;;11.80;4.70;;;;;;;7.66;49.03;96434.91;5026424;28;20045;-74
2022/04/18 07:16:30;;;;;;;7.50;4.50;;;;;;;7.73;48.05;96429.94;5046249;28;20048;-74
2022/04/18 07:18:57;;;;;;;8.10;4.30;;;;;;;7.90;48.28;96435.59;5048943;28;20068;-73
2022/04/18 07:21:26;;;;;;;6.22;4.30;;;;;;;8.04;48.92;96439.13;5047629;28;20072;-73
2022/04/18 07:23:52;;;;;;;7.22;5.00;;;;;;;8.21;47.99;96443.16;5048830;28;20052;-73
2022/04/18 07:26:19;;;;;;;6.25;3.97;;;;;;;8.38;48.73;96437.97;5048138;28;20052;-74
2022/04/18 07:28:45;;;;;;;11.60;5.53;;;;;;;8.61;47.65;96431.53;5048598;28;20053;-73
2022/04/18 07:31:12;;;;;;;8.25;4.80;;;;;;;8.93;47.71;96437.94;5048201;28;20053;-74
2022/04/18 07:33:39;;;;;;;7.10;4.28;;;;;;;9.40;46.15;96433.06;5048015;28;20748;-74
2022/04/18 07:36:05;;;;;;;6.90;4.35;;;;;;;10.19;41.97;96435.13;5048153;28;20064;-74
2022/04/18 07:41:18;;;;;;;6.05;3.78;;;;;;;12.06;38.86;96440.69;5047708;28;20138;-74
2022/04/18 07:43:45;;;;;;;6.53;4.03;;;;;;;13.14;37.70;96435.66;5041657;28;20054;-73
2022/04/18 07:46:12;;;;;;;7.20;3.80;;;;;;;13.95;36.75;96436.31;5045888;28;20417;-74
2022/04/18 07:48:39;;;;;;;6.63;3.40;;;;;;;14.53;34.36;96437.13;5047842;28;20044;-74
2022/04/18 07:53:51;;;;;;;5.30;3.60;;;;;;;15.76;31.61;96446.00;5048273;28;20056;-74
2022/04/18 07:56:17;;;;;;;6.95;3.72;;;;;;;16.26;31.08;96448.19;5046977;28;20127;-74
2022/04/18 07:58:44;;;;;;;6.15;3.25;;;;;;;16.35;30.09;96440.56;5048593;28;20049;-74
2022/04/18 08:01:10;;;;;;;5.78;3.15;;;;;;;16.30;28.30;96438.09;5046334;28;20531;-74
2022/04/18 08:03:37;;;;;;;5.05;2.97;;;;;;;16.49;30.49;96439.31;5048173;28;20052;-74
2022/04/18 08:06:04;;;;;;;6.88;3.38;;;;;;;16.60;27.82;96434.88;5047187;28;20052;-73
2022/04/18 08:08:31;;;;;;;4.97;3.53;;;;;;;16.79;27.91;96431.47;5047652;28;20049;-74
2022/04/18 08:10:59;;;;;;;6.57;4.13;;;;;;;16.91;27.46;96443.19;5047219;28;20128;-74
2022/04/18 08:13:26;;;;;;;4.72;3.00;;;;;;;16.79;27.03;96436.97;5042850;28;20049;-75
2022/04/18 08:15:53;;;;;;;7.75;3.60;;;;;;;16.84;27.88;96439.44;5042816;28;20053;-74
2022/04/18 08:18:20;;;;;;;5.57;3.50;;;;;;;16.77;28.04;96442.84;5046832;28;20068;-74
2022/04/18 08:20:46;;;;;;;4.40;3.30;;;;;;;16.69;26.84;96444.56;5047613;28;20048;-74
2022/04/18 08:23:13;;;;;;;5.15;3.60;;;;;;;16.92;28.53;96447.53;5046466;28;20048;-74
2022/04/18 08:25:39;;;;;;;4.35;3.10;;;;;;;16.93;27.30;96438.13;5048091;28;20045;-74
2022/04/18 08:28:07;;;;;;;5.03;3.30;;;;;;;16.74;27.59;96446.28;5045295;28;20053;-74
2022/04/18 08:30:34;;;;;;;4.93;3.30;;;;;;;16.59;27.41;96445.09;5047072;28;20136;-74
2022/04/18 08:33:01;;;;;;;6.97;3.17;;;;;;;16.57;27.87;96443.88;5046707;28;20412;-74
2022/04/18 08:35:27;;;;;;;5.95;3.70;;;;;;;16.76;28.68;96437.66;5046697;28;20120;-74
2022/04/18 08:37:54;;;;;;;6.72;3.10;;;;;;;17.46;29.28;96438.53;5047120;28;20059;-74
2022/04/18 08:40:21;;;;;;;4.53;3.55;;;;;;;17.93;28.71;96445.81;5046154;28;20075;-74
2022/04/18 08:42:48;;;;;;;5.03;3.05;;;;;;;18.59;25.04;96443.09;5047564;28;20132;-74
2022/04/18 08:45:15;;;;;;;4.80;3.08;;;;;;;18.92;26.47;96445.25;5034656;28;20792;-74
2022/04/18 08:53:13;;;;;;;4.10;3.10;;;;;;;18.87;23.77;96438.06;5046298;28;20546;-74
2022/04/18 08:55:41;;;;;;;4.15;2.83;;;;;;;18.59;23.36;96438.38;5046491;28;20049;-74
2022/04/18 08:58:09;;;;;;;4.03;2.85;;;;;;;17.97;23.35;96441.19;5045803;28;20453;-74
2022/04/18 09:00:37;;;;;;;3.88;2.70;;;;;;;17.69;25.73;96435.03;5046162;28;20041;-75
2022/04/18 09:03:04;;;;;;;4.43;3.05;;;;;;;17.50;26.31;96438.59;5045378;28;20055;-74
2022/04/18 09:05:35;;;;;;;5.25;2.95;;;;;;;17.60;24.54;96440.00;5046712;28;20056;-74
2022/04/18 09:08:04;;;;;;;8.07;3.15;;;;;;;17.63;28.04;96425.47;5045212;28;20135;-74
2022/04/18 09:10:30;;;;;;;6.53;3.05;;;;;;;17.58;26.06;96428.53;5046632;28;20056;-74
2022/04/18 09:13:03;;;;;;;6.72;3.30;;;;;;;17.18;25.65;96426.91;5045713;28;20053;-74
2022/04/18 09:15:32;;;;;;;4.40;3.05;;;;;;;16.60;27.15;96423.91;5018143;28;20057;-75
2022/04/18 09:18:10;;;;;;;4.85;2.95;;;;;;;16.55;30.22;96424.97;5026212;28;20080;-74
2022/04/18 09:20:45;;;;;;;5.25;3.20;;;;;;;16.59;26.81;96427.81;5025647;28;20048;-74
2022/04/18 09:23:24;;;;;;;6.35;3.10;;;;;;;16.56;27.98;96428.53;5026110;28;20065;-74
2022/04/18 09:25:56;;;;;;;6.18;3.40;;;;;;;16.76;28.44;96422.00;5025863;28;20049;-74
2022/04/18 09:28:24;;;;;;;4.88;3.10;;;;;;;16.69;26.31;96428.06;5025542;28;20049;-74
2022/04/18 09:31:00;;;;;;;6.93;3.30;;;;;;;16.63;26.52;96425.94;5025247;28;20049;-76
2022/04/18 09:33:40;;;;;;;5.60;3.20;;;;;;;16.61;31.06;96420.81;5025035;28;20076;-73
2022/04/18 09:36:12;;;;;;;6.72;3.03;;;;;;;16.67;27.33;96418.59;5025641;28;20079;-75
2022/04/18 09:38:41;;;;;;;5.25;3.25;;;;;;;16.55;27.08;96411.25;5024910;28;20104;-75
2022/04/18 09:41:08;;;;;;;5.00;3.13;;;;;;;16.62;27.35;96411.41;5025680;28;20049;-75
2022/04/18 09:43:39;;;;;;;7.22;3.28;;;;;;;16.81;27.41;96407.97;5031095;28;20041;-76
2022/04/18 09:46:07;;;;;;;5.68;3.90;;;;;;;16.87;26.93;96411.25;5045576;28;20052;-75
2022/04/18 09:48:35;;;;;;;5.05;3.15;;;;;;;16.83;26.68;96410.34;5044558;28;20414;-75
2022/04/18 09:51:08;;;;;;;6.95;3.45;;;;;;;16.94;26.38;96412.19;5044711;28;20048;-75
2022/04/18 09:53:35;;;;;;;;;;;;;;;17.12;26.65;96407.13;5046251;28;20511;-76
2022/04/18 09:56:02;;;;;;;5.05;3.03;;;;;;;17.29;28.07;96400.41;5044890;28;20544;-75
2022/04/18 09:58:31;;;;;;;4.68;2.78;;;;;;;17.50;27.30;96404.78;5045573;28;20045;-75
2022/04/18 10:01:00;;;;;;;5.80;3.35;;;;;;;17.65;26.00;96409.41;5044319;28;20625;-74
2022/04/18 10:03:26;;;;;;;5.60;3.08;;;;;;;17.73;27.76;96402.91;5045474;28;20051;-74
2022/04/18 10:05:56;;;;;;;4.60;3.10;;;;;;;17.58;27.53;96401.00;5044721;28;20106;-74
2022/04/18 10:08:22;;;;;;;4.90;3.30;;;;;;;17.52;25.94;96391.44;5044899;28;20056;-73
2022/04/18 10:10:49;;;;;;;7.10;2.88;;;;;;;17.58;25.28;96401.00;5044466;28;20060;-73
2022/04/18 10:13:16;;;;;;;6.65;3.13;;;;;;;17.39;24.37;96399.84;5044496;28;20463;-73
2022/04/18 10:15:42;;;;;;;4.07;2.80;;;;;;;17.35;26.97;96398.16;5045089;28;20087;-74
2022/04/18 10:18:10;;;;;;;5.35;3.10;;;;;;;17.55;27.72;96394.28;5044408;28;20056;-74
2022/04/18 10:20:50;;;;;;;5.38;2.90;;;;;;;17.65;25.80;96384.63;5044933;28;20049;-73
2022/04/18 10:23:36;;;;;;;4.28;2.60;;;;;;;17.70;24.42;96382.38;5043774;28;20562;-74
2022/04/18 10:26:47;;;;;;;4.25;2.70;;;;;;;17.80;23.91;96374.69;5044825;28;20140;-73
2022/04/18 10:29:20;;;;;;;3.47;2.45;;;;;;;17.90;24.00;96385.91;5044664;28;20053;-73
2022/04/18 10:31:49;;;;;;;4.40;3.03;;;;;;;17.81;22.37;96384.59;5044254;28;20702;-74
2022/04/18 10:34:16;;;;;;;3.92;2.47;;;;;;;17.71;23.97;96370.19;5044852;28;20052;-73
2022/04/18 10:36:46;;;;;;;3.58;2.58;;;;;;;17.62;23.34;96374.34;5044395;28;20068;-74
2022/04/18 10:39:14;;;;;;;4.35;2.72;;;;;;;17.64;24.02;96366.50;5045280;28;20055;-74
2022/04/18 10:41:42;;;;;;;5.75;4.72;;;;;;;17.67;25.24;96369.31;5044283;28;20527;-74
2022/04/18 10:44:09;;;;;;;3.75;2.63;;;;;;;17.71;23.63;96367.44;5044622;28;20794;-74
2022/04/18 10:46:37;;;;;;;5.43;2.80;;;;;;;17.50;23.51;96367.03;5044551;28;20049;-74
2022/04/18 10:49:05;;;;;;;3.58;2.42;;;;;;;17.39;23.78;96366.81;5044368;28;20562;-75
2022/04/18 10:51:36;;;;;;;4.80;3.05;;;;;;;17.55;24.42;96360.44;5046713;28;20053;-74
2022/04/18 10:54:07;;;;;;;4.90;2.63;;;;;;;17.59;23.73;96358.53;5047832;28;20060;-73
2022/04/18 10:56:49;;;;;;;3.42;2.10;;;;;;;17.57;24.60;96358.09;5049196;28;20045;-74
2022/04/18 10:59:17;;;;;;;4.90;2.72;;;;;;;17.58;23.72;96354.19;5048275;28;20068;-74
2022/04/18 11:01:44;;;;;;;4.05;2.65;;;;;;;17.67;22.23;96349.25;5048921;28;20060;-76
2022/04/18 11:04:11;;;;;;;3.45;2.20;;;;;;;17.79;23.61;96345.56;5047907;28;20629;-76
2022/04/18 11:06:49;;;;;;;4.63;2.78;;;;;;;17.84;23.17;96348.81;5048904;28;20686;-76
2022/04/18 11:09:20;;;;;;;3.28;2.47;;;;;;;18.04;23.20;96343.28;5048135;28;20057;-73
2022/04/18 11:11:52;;;;;;;3.50;2.53;;;;;;;18.10;23.39;96341.81;5047938;28;20099;-74
2022/04/18 11:14:21;;;;;;;3.65;2.40;;;;;;;17.88;22.20;96340.63;5048566;28;20053;-74
2022/04/18 11:16:56;;;;;;;3.60;2.40;;;;;;;18.03;22.92;96341.69;5047747;28;20056;-74
2022/04/18 11:19:25;;;;;;;3.83;2.30;;;;;;;18.00;23.25;96345.97;5048469;28;20503;-74
2022/04/18 11:22:10;;;;;;;4.68;2.22;;;;;;;17.80;22.31;96336.13;5047821;28;20214;-74
2022/04/18 11:24:38;;;;;;;6.72;2.58;;;;;;;17.76;25.04;96330.59;5048131;28;20463;-74
2022/04/18 11:27:09;;;;;;;4.10;2.40;;;;;;;17.71;23.35;96341.88;5048049;28;20045;-76
2022/04/18 11:29:36;;;;;;;2.88;2.13;;;;;;;17.78;23.70;96332.97;5047802;28;20824;-75
2022/04/18 11:32:03;;;;;;;3.45;2.30;;;;;;;17.87;22.98;96337.09;5047992;28;20567;-75
2022/04/18 11:34:32;;;;;;;3.97;2.65;;;;;;;17.57;23.95;96322.31;5047538;28;20057;-75
2022/04/18 11:37:00;;;;;;;3.60;2.38;;;;;;;17.68;22.95;96324.09;5048444;28;20055;-75
2022/04/18 11:39:42;;;;;;;4.18;2.72;;;;;;;17.83;25.75;96314.19;5047491;28;20045;-76
2022/04/18 11:42:15;;;;;;;3.38;2.22;;;;;;;17.95;23.04;96308.47;5047553;28;20136;-76
2022/04/18 11:44:42;;;;;;;3.40;2.13;;;;;;;17.85;22.70;96311.06;5047643;28;20131;-75
2022/04/18 11:47:10;;;;;;;3.30;2.50;;;;;;;17.90;23.92;96303.28;5046834;28;20052;-75
2022/04/18 11:49:38;;;;;;;3.10;1.98;;;;;;;17.86;25.06;96307.94;5048190;28;20048;-76
2022/04/18 11:52:05;;;;;;;6.18;2.85;;;;;;;18.05;24.46;96309.03;5046392;28;20620;-75
2022/04/18 11:54:32;;;;;;;5.55;2.45;;;;;;;17.96;22.77;96307.34;5048251;28;20055;-73
2022/04/18 11:56:59;;;;;;;3.50;2.42;;;;;;;17.99;24.92;96298.34;5047473;28;20602;-76
2022/04/18 11:59:30;;;;;;;5.07;2.75;;;;;;;17.90;24.21;96289.50;5047653;28;20060;-76
2022/04/18 12:07:31;;;;;;;3.78;2.10;;;;;;;17.89;24.12;96274.16;5047252;28;20056;-76